createdAt,value
2019-03-16T00:03:33.693Z,1.22
2019-03-16T00:08:37.259Z,1.27
2019-03-16T00:13:40.795Z,1.30
2019-03-16T00:18:44.327Z,1.07
2019-03-16T00:23:47.894Z,1.32
2019-03-16T00:28:51.409Z,1.12
2019-03-16T00:33:54.979Z,1.20
2019-03-16T00:38:58.607Z,0.95
2019-03-16T00:44:02.209Z,1.10
2019-03-16T00:49:05.771Z,0.90
2019-03-16T00:54:09.347Z,0.90
2019-03-16T00:59:12.904Z,1.15
2019-03-16T01:04:16.477Z,0.85
2019-03-16T01:09:20.062Z,1.10
2019-03-16T01:14:23.667Z,0.98
2019-03-16T01:19:27.195Z,1.10
2019-03-16T01:24:30.783Z,0.95
2019-03-16T01:29:34.321Z,1.05
2019-03-16T01:34:37.874Z,1.20
2019-03-16T01:39:41.416Z,1.02
2019-03-16T01:44:44.953Z,1.10
2019-03-16T01:49:48.482Z,1.00
2019-03-16T01:54:52.061Z,0.90
2019-03-16T01:59:55.634Z,1.00
2019-03-16T02:04:59.171Z,0.82
2019-03-16T02:10:02.705Z,1.00
2019-03-16T02:15:08.505Z,0.93
2019-03-16T02:20:12.070Z,1.00
2019-03-16T02:25:15.605Z,0.90
2019-03-16T02:30:19.196Z,0.78
2019-03-16T02:35:22.713Z,0.90
2019-03-16T02:40:26.254Z,0.82
2019-03-16T02:45:29.825Z,0.97
2019-03-16T02:50:33.365Z,0.90
2019-03-16T02:55:36.946Z,1.00
2019-03-16T03:00:40.483Z,0.90
2019-03-16T03:05:44.017Z,0.90
2019-03-16T03:10:47.615Z,1.00
2019-03-16T03:15:51.160Z,0.88
2019-03-16T03:20:54.698Z,0.80
2019-03-16T03:25:58.236Z,0.82
2019-03-16T03:31:01.808Z,0.80
2019-03-16T03:36:05.381Z,0.90
2019-03-16T03:41:08.962Z,0.60
2019-03-16T03:46:12.484Z,0.70
2019-03-16T03:51:16.021Z,0.80
2019-03-16T03:56:19.588Z,0.90
2019-03-16T04:01:23.132Z,0.70
2019-03-16T04:06:26.744Z,0.60
2019-03-16T04:11:30.268Z,0.60
2019-03-16T04:16:33.809Z,0.65
2019-03-16T04:21:37.395Z,0.68
2019-03-16T04:26:40.927Z,0.70
2019-03-16T04:31:44.487Z,0.55
2019-03-16T04:36:48.023Z,0.80
2019-03-16T04:41:51.558Z,0.78
2019-03-16T04:46:55.123Z,0.60
2019-03-16T04:51:58.785Z,0.70
2019-03-16T04:57:02.349Z,0.70
2019-03-16T05:02:05.913Z,0.70
2019-03-16T05:07:09.481Z,0.70
2019-03-16T05:12:13.045Z,1.10
2019-03-16T05:17:16.604Z,0.78
2019-03-16T05:22:20.147Z,1.22
2019-03-16T05:27:23.686Z,0.95
2019-03-16T05:32:27.342Z,1.45
2019-03-16T05:37:30.888Z,0.90
2019-03-16T05:42:34.424Z,1.12
2019-03-16T05:47:37.959Z,0.70
2019-03-16T05:52:41.524Z,1.05
2019-03-16T05:57:45.083Z,1.35
2019-03-16T06:02:48.626Z,0.90
2019-03-16T06:07:52.191Z,1.20
2019-03-16T06:12:55.761Z,1.30
2019-03-16T06:17:59.305Z,0.80
2019-03-16T06:23:02.866Z,1.30
2019-03-16T06:28:06.403Z,1.40
2019-03-16T06:33:09.979Z,1.40
2019-03-16T06:38:13.524Z,1.15
2019-03-16T06:43:17.072Z,1.20
2019-03-16T06:48:20.741Z,1.05
2019-03-16T06:53:24.432Z,1.40
2019-03-16T06:58:28.003Z,1.23
2019-03-16T07:03:31.553Z,1.10
2019-03-16T07:08:35.117Z,1.40
2019-03-16T07:13:38.688Z,1.75
2019-03-16T07:18:42.273Z,1.77
2019-03-16T07:23:45.811Z,1.42
2019-03-16T07:28:49.482Z,2.22
2019-03-16T07:33:52.999Z,1.60
2019-03-16T07:38:56.533Z,1.77
2019-03-16T07:44:00.072Z,1.82
2019-03-16T07:49:03.723Z,1.60
2019-03-16T07:54:07.239Z,1.65
2019-03-16T07:59:10.811Z,1.43
2019-03-16T08:04:14.339Z,1.45
2019-03-16T08:09:17.909Z,1.40
2019-03-16T08:14:21.655Z,1.20
2019-03-16T08:19:25.285Z,1.25
2019-03-16T08:24:29.029Z,1.13
2019-03-16T08:29:32.559Z,1.40
2019-03-16T08:34:36.249Z,1.40
2019-03-16T08:39:40.773Z,1.50
2019-03-16T08:44:44.311Z,1.40
2019-03-16T08:49:47.883Z,2.08
2019-03-16T08:54:51.469Z,1.27
2019-03-16T08:59:55.219Z,1.45
2019-03-16T09:04:58.760Z,1.00
2019-03-16T09:10:02.323Z,1.30
2019-03-16T09:15:09.146Z,1.10
2019-03-16T09:20:12.720Z,1.37
2019-03-16T09:25:16.400Z,1.12
2019-03-16T09:30:19.920Z,0.95
2019-03-16T09:35:23.599Z,1.43
2019-03-16T09:40:27.129Z,1.47
2019-03-16T09:45:30.689Z,1.87
2019-03-16T09:50:34.249Z,2.27
2019-03-16T09:55:37.799Z,4.80
2019-03-16T10:00:41.362Z,2.37
2019-03-16T10:05:44.908Z,2.17
2019-03-16T10:10:48.445Z,1.65
2019-03-16T10:15:52.008Z,1.92
2019-03-16T10:20:55.571Z,2.30
2019-03-16T10:25:59.138Z,1.60
2019-03-16T10:31:02.709Z,1.87
2019-03-16T10:36:06.267Z,1.50
2019-03-16T10:41:09.848Z,1.58
2019-03-16T10:46:13.394Z,1.45
2019-03-16T10:51:16.955Z,1.30
2019-03-16T10:56:20.501Z,1.67
2019-03-16T11:01:24.040Z,1.40
2019-03-16T11:06:27.604Z,1.17
2019-03-16T11:11:31.201Z,1.20
2019-03-16T11:16:34.744Z,1.67
2019-03-16T11:21:38.327Z,1.35
2019-03-16T11:26:41.917Z,1.20
2019-03-16T11:31:45.857Z,1.62
2019-03-16T11:36:49.425Z,1.80
2019-03-16T11:41:53.013Z,1.30
2019-03-16T11:46:56.531Z,1.10
2019-03-16T11:52:00.090Z,1.30
2019-03-16T11:57:03.663Z,1.32
2019-03-16T12:02:07.222Z,1.30
2019-03-16T12:07:10.763Z,1.40
2019-03-16T12:12:14.441Z,1.47
2019-03-16T12:17:17.965Z,1.60
2019-03-16T12:22:21.699Z,1.50
2019-03-16T12:27:25.215Z,1.30
2019-03-16T12:32:28.776Z,1.50
2019-03-16T12:37:32.340Z,1.50
2019-03-16T12:42:35.971Z,1.40
2019-03-16T12:47:39.520Z,1.37
2019-03-16T12:52:43.094Z,1.40
2019-03-16T12:57:48.006Z,1.40
2019-03-16T13:02:51.902Z,1.30
2019-03-16T13:07:55.424Z,1.30
2019-03-16T13:12:59.107Z,1.30
2019-03-16T13:18:02.634Z,1.10
2019-03-16T13:23:06.210Z,1.12
2019-03-16T13:28:09.738Z,1.08
2019-03-16T13:33:13.270Z,1.20
2019-03-16T13:38:16.832Z,1.07
2019-03-16T13:43:20.379Z,1.30
2019-03-16T13:48:23.978Z,1.00
2019-03-16T13:53:27.512Z,1.07
2019-03-16T13:58:31.348Z,1.10
2019-03-16T14:03:34.883Z,1.37
2019-03-16T14:08:38.744Z,1.30
2019-03-16T14:13:42.300Z,1.40
2019-03-16T14:18:46.148Z,1.10
2019-03-16T14:23:49.688Z,1.50
2019-03-16T14:28:56.221Z,1.62
2019-03-16T14:33:59.796Z,1.40
2019-03-16T14:39:04.957Z,1.57
2019-03-16T14:44:08.486Z,1.62
2019-03-16T14:49:12.019Z,1.65
2019-03-16T14:54:15.568Z,1.98
2019-03-16T14:59:19.155Z,2.47
2019-03-16T15:04:22.706Z,2.00
2019-03-16T15:09:26.637Z,2.30
2019-03-16T15:14:30.171Z,2.05
2019-03-16T15:19:33.764Z,2.20
2019-03-16T15:24:37.326Z,1.82
2019-03-16T15:29:40.869Z,2.20
2019-03-16T15:34:44.402Z,2.72
2019-03-16T15:39:47.943Z,2.40
2019-03-16T15:44:51.512Z,3.50
2019-03-16T15:49:57.399Z,4.80
2019-03-16T15:55:00.475Z,10.85
2019-03-16T16:00:10.738Z,7.55
2019-03-16T16:05:14.332Z,5.55
2019-03-16T16:10:19.126Z,4.80
2019-03-16T16:15:22.655Z,4.53
2019-03-16T16:20:26.265Z,3.63
2019-03-16T16:25:29.793Z,4.15
2019-03-16T16:30:33.528Z,3.67
2019-03-16T16:35:37.052Z,3.50
2019-03-16T16:40:40.615Z,3.58
2019-03-16T16:45:46.660Z,3.08
2019-03-16T16:50:49.461Z,3.27
2019-03-16T16:55:53.006Z,3.00
2019-03-16T17:00:56.593Z,2.90
2019-03-16T17:06:00.137Z,2.90
2019-03-16T17:11:03.683Z,2.90
2019-03-16T17:16:07.299Z,3.33
2019-03-16T17:21:10.835Z,3.45
2019-03-16T17:26:14.372Z,3.42
2019-03-16T17:31:17.931Z,3.23
2019-03-16T17:36:22.376Z,3.37
2019-03-16T17:41:26.003Z,3.15
2019-03-16T17:46:29.562Z,3.42
2019-03-16T17:51:33.125Z,3.27
2019-03-16T17:56:36.661Z,3.10
2019-03-16T18:01:40.205Z,3.35
2019-03-16T18:06:43.783Z,3.67
2019-03-16T18:11:47.322Z,3.65
2019-03-16T18:16:50.881Z,4.30
2019-03-16T18:21:54.535Z,3.40
2019-03-16T18:26:58.075Z,3.70
2019-03-16T18:32:07.758Z,3.85
2019-03-16T18:37:06.896Z,3.63
2019-03-16T18:42:10.459Z,3.70
2019-03-16T18:47:14.021Z,3.70
2019-03-16T18:52:17.591Z,4.22
2019-03-16T18:57:21.152Z,4.22
2019-03-16T19:02:24.727Z,4.47
2019-03-16T19:07:28.253Z,3.77
2019-03-16T19:12:31.925Z,4.10
2019-03-16T19:17:35.490Z,4.28
2019-03-16T19:22:39.016Z,4.45
2019-03-16T19:27:42.578Z,10.80
2019-03-16T19:32:46.156Z,16.30
2019-03-16T19:37:49.735Z,15.75
2019-03-16T19:42:53.362Z,15.60
2019-03-16T19:47:57.139Z,15.80
2019-03-16T19:53:00.681Z,18.05
2019-03-16T19:58:04.866Z,20.04
2019-03-16T20:03:08.428Z,18.60
2019-03-16T20:08:11.990Z,18.63
2019-03-16T20:13:15.897Z,19.32
2019-03-16T20:18:19.431Z,18.95
2019-03-16T20:23:22.976Z,18.25
2019-03-16T20:28:26.550Z,16.97
2019-03-16T20:33:30.293Z,11.50
2019-03-16T20:38:33.819Z,10.45
2019-03-16T20:43:37.395Z,10.35
2019-03-16T20:48:40.952Z,9.70
2019-03-16T20:53:44.497Z,10.35
2019-03-16T20:58:48.093Z,9.20
2019-03-16T21:03:51.700Z,9.60
2019-03-16T21:09:03.039Z,9.48
2019-03-16T21:13:59.549Z,9.00
2019-03-16T21:19:03.116Z,8.65
2019-03-16T21:24:07.524Z,9.23
2019-03-16T21:29:11.140Z,9.30
2019-03-16T21:34:14.713Z,8.88
2019-03-16T21:39:18.272Z,8.88
2019-03-16T21:44:21.862Z,9.05
2019-03-16T21:49:25.461Z,7.95
2019-03-16T21:54:29.181Z,8.85
2019-03-16T21:59:32.730Z,8.23
2019-03-16T22:04:36.294Z,8.98
2019-03-16T22:09:39.846Z,8.30
2019-03-16T22:14:43.530Z,8.28
2019-03-16T22:19:47.082Z,7.50
2019-03-16T22:24:50.656Z,7.83
2019-03-16T22:29:54.208Z,7.40
2019-03-16T22:34:58.023Z,7.55
2019-03-16T22:40:02.135Z,7.22
2019-03-16T22:45:07.981Z,7.08
2019-03-16T22:50:16.915Z,6.90
2019-03-16T22:55:20.504Z,7.72
2019-03-16T23:00:37.164Z,7.97
2019-03-16T23:05:40.258Z,7.00
2019-03-16T23:10:43.807Z,6.75
2019-03-16T23:15:47.369Z,6.85
2019-03-16T23:20:50.959Z,6.30
2019-03-16T23:25:54.489Z,6.17
2019-03-16T23:30:58.019Z,6.17
2019-03-16T23:36:01.588Z,5.60
2019-03-16T23:41:05.186Z,5.95
2019-03-16T23:46:08.782Z,5.92
2019-03-16T23:51:12.300Z,6.15
2019-03-16T23:56:15.872Z,5.43
